Time;durP1;ratioP1;P1;durP2;ratioP2;P2;SDS_P1;SDS_P2;PMS_P1;PMS_P2;Temp;Humidity;BMP_temperature;BMP_pressure;BME280_temperature;BME280_humidity;BME280_pressure;Samples;Min_cycle;Max_cycle;Signal;HPM_P1;HPM_P2
2023/05/25 00:02:23;;;;;;;6.32;2.67;;;12.80;85.40;;;;;;5053924;28;20076;-79
2023/05/25 00:04:49;;;;;;;6.38;1.85;;;12.70;85.70;;;;;;5055184;28;20021;-79
2023/05/25 00:07:15;;;;;;;11.05;2.28;;;12.70;85.80;;;;;;5053888;28;20033;-79
2023/05/25 00:09:43;;;;;;;5.88;2.30;;;12.70;85.90;;;;;;5055378;28;20025;-79
2023/05/25 00:12:09;;;;;;;8.73;2.25;;;12.70;86.20;;;;;;5055739;28;20104;-79
2023/05/25 00:14:35;;;;;;;7.70;2.38;;;12.60;86.50;;;;;;5055608;28;20108;-79
2023/05/25 00:17:02;;;;;;;6.50;1.83;;;12.60;87.00;;;;;;5055153;28;20215;-79
2023/05/25 00:19:31;;;;;;;9.50;2.45;;;12.50;87.20;;;;;;5053789;28;20025;-79
2023/05/25 00:22:00;;;;;;;5.45;1.95;;;12.50;87.00;;;;;;5054432;28;20021;-78
2023/05/25 00:24:27;;;;;;;4.88;1.90;;;12.50;87.60;;;;;;5053248;28;20463;-78
2023/05/25 00:26:53;;;;;;;3.92;1.88;;;12.50;87.40;;;;;;5054457;28;20044;-81
2023/05/25 00:29:18;;;;;;;11.18;2.45;;;12.10;89.00;;;;;;5053721;28;20036;-81
2023/05/25 00:31:44;;;;;;;8.75;2.72;;;11.90;90.10;;;;;;5055113;28;20025;-78
2023/05/25 00:34:09;;;;;;;5.07;2.35;;;11.90;90.30;;;;;;5054968;28;20033;-79
2023/05/25 00:36:35;;;;;;;6.03;2.35;;;12.00;90.40;;;;;;5053325;28;20028;-78
2023/05/25 00:39:01;;;;;;;5.68;2.10;;;11.90;90.60;;;;;;5054965;28;20199;-78
2023/05/25 00:41:27;;;;;;;8.57;2.35;;;11.80;90.60;;;;;;5053391;28;20033;-78
2023/05/25 00:43:53;;;;;;;8.88;2.30;;;11.90;90.70;;;;;;5053466;28;20032;-78
2023/05/25 00:46:18;;;;;;;6.15;2.40;;;12.00;90.60;;;;;;5054230;28;20029;-80
2023/05/25 00:48:44;;;;;;;6.93;2.15;;;12.00;90.50;;;;;;5053674;28;20025;-79
2023/05/25 00:51:14;;;;;;;9.10;2.33;;;12.00;90.60;;;;;;5054512;28;20043;-79
2023/05/25 00:53:40;;;;;;;8.30;2.53;;;12.00;90.80;;;;;;5053456;28;20056;-79
2023/05/25 00:56:21;;;;;;;7.70;2.72;;;12.00;90.70;;;;;;5054663;28;20033;-79
2023/05/25 00:58:52;;;;;;;9.38;2.33;;;11.90;91.10;;;;;;5053827;28;20048;-78
2023/05/25 01:01:19;;;;;;;7.65;2.40;;;11.90;91.30;;;;;;5053459;28;20053;-78
2023/05/25 01:03:52;;;;;;;10.70;2.40;;;11.80;91.20;;;;;;5053234;28;20029;-78
2023/05/25 01:06:21;;;;;;;5.68;2.00;;;11.70;91.70;;;;;;5053139;28;20543;-78
2023/05/25 01:08:51;;;;;;;9.93;2.38;;;11.70;91.60;;;;;;5053195;28;20463;-80
2023/05/25 01:11:23;;;;;;;7.43;2.20;;;11.80;91.60;;;;;;5052948;28;20060;-79
2023/05/25 01:13:51;;;;;;;7.55;2.60;;;11.70;91.50;;;;;;5056104;28;20059;-77
2023/05/25 01:16:18;;;;;;;6.38;2.40;;;11.60;91.70;;;;;;5056849;28;20060;-79
2023/05/25 01:18:43;;;;;;;8.00;2.70;;;11.60;91.90;;;;;;5052753;28;20029;-78
2023/05/25 01:21:20;;;;;;;7.20;2.50;;;11.60;91.90;;;;;;5053948;28;20021;-78
2023/05/25 01:23:54;;;;;;;9.45;2.53;;;11.60;91.70;;;;;;5053014;28;20032;-79
2023/05/25 01:26:23;;;;;;;6.28;2.47;;;11.70;91.60;;;;;;5052561;28;20044;-79
2023/05/25 01:28:51;;;;;;;7.00;2.35;;;11.70;91.70;;;;;;5052995;28;20059;-79
2023/05/25 01:31:22;;;;;;;9.07;2.70;;;11.70;92.10;;;;;;5053579;28;20025;-80
2023/05/25 01:33:52;;;;;;;7.10;1.80;;;11.70;92.00;;;;;;5053196;28;20025;-79
2023/05/25 01:36:18;;;;;;;7.43;2.33;;;11.80;92.20;;;;;;5053234;28;20060;-79
2023/05/25 01:38:44;;;;;;;4.65;1.85;;;11.80;92.40;;;;;;5056021;28;20029;-79
2023/05/25 01:41:10;;;;;;;6.32;2.40;;;11.70;92.40;;;;;;5055275;28;20519;-79
2023/05/25 01:43:35;;;;;;;6.80;2.72;;;11.70;92.30;;;;;;5053359;28;20025;-77
2023/05/25 01:46:22;;;;;;;9.27;2.45;;;11.70;92.40;;;;;;5052737;28;20097;-78
2023/05/25 01:49:07;;;;;;;6.50;2.33;;;11.70;92.30;;;;;;5054207;28;20036;-78
2023/05/25 01:51:43;;;;;;;6.95;2.20;;;11.70;92.30;;;;;;5052796;28;20032;-78
2023/05/25 01:54:17;;;;;;;6.25;2.15;;;11.70;92.10;;;;;;5053163;28;20170;-78
2023/05/25 01:56:45;;;;;;;5.93;2.33;;;11.80;92.20;;;;;;5055207;28;20033;-78
2023/05/25 01:59:13;;;;;;;7.20;2.13;;;11.70;92.10;;;;;;5063339;28;20060;-79
2023/05/25 02:01:40;;;;;;;9.68;2.35;;;11.70;92.20;;;;;;5062589;28;20478;-78
2023/05/25 02:04:06;;;;;;;6.75;2.20;;;11.70;92.30;;;;;;5054125;28;20052;-79
2023/05/25 02:06:32;;;;;;;7.68;2.13;;;11.70;92.60;;;;;;5053160;28;20051;-79
2023/05/25 02:08:57;;;;;;;4.78;2.22;;;11.70;92.40;;;;;;5053616;28;20029;-79
2023/05/25 02:11:23;;;;;;;8.73;2.17;;;11.70;92.50;;;;;;5052026;28;20103;-79
2023/05/25 02:13:48;;;;;;;8.20;2.25;;;11.70;92.80;;;;;;5053704;28;20029;-79
2023/05/25 02:16:14;;;;;;;8.25;1.92;;;11.60;92.50;;;;;;5052983;28;20036;-78
2023/05/25 02:18:43;;;;;;;8.93;2.30;;;11.70;92.40;;;;;;5053134;28;20025;-78
2023/05/25 02:21:09;;;;;;;8.32;2.83;;;11.70;92.60;;;;;;5052559;28;20075;-78
2023/05/25 02:23:35;;;;;;;12.30;3.10;;;11.70;92.60;;;;;;5051771;28;20079;-79
2023/05/25 02:26:00;;;;;;;8.75;2.40;;;11.80;92.90;;;;;;5052378;28;20428;-78
2023/05/25 02:28:26;;;;;;;7.65;2.15;;;11.80;92.90;;;;;;5054813;28;20029;-79
2023/05/25 02:30:51;;;;;;;8.55;2.33;;;11.70;93.00;;;;;;5056620;28;20025;-79
2023/05/25 02:33:17;;;;;;;6.28;2.30;;;11.70;93.10;;;;;;5056411;28;20021;-79
2023/05/25 02:35:43;;;;;;;8.40;2.22;;;11.70;93.20;;;;;;5056572;28;20025;-79
2023/05/25 02:38:09;;;;;;;12.15;3.28;;;11.80;93.30;;;;;;5056484;28;20029;-79
2023/05/25 02:40:34;;;;;;;10.93;2.58;;;11.80;93.60;;;;;;5057302;28;20025;-78
2023/05/25 02:43:00;;;;;;;9.02;2.55;;;11.70;94.00;;;;;;5056143;28;20120;-79
2023/05/25 02:45:28;;;;;;;7.38;3.00;;;11.70;94.30;;;;;;5056145;28;20021;-79
2023/05/25 02:47:53;;;;;;;7.55;2.85;;;11.70;94.60;;;;;;5055849;28;20031;-79
2023/05/25 02:50:19;;;;;;;6.65;2.80;;;11.70;95.20;;;;;;5056061;28;20124;-77
2023/05/25 02:52:45;;;;;;;10.50;2.85;;;11.70;95.50;;;;;;5056792;28;20458;-78
2023/05/25 02:55:12;;;;;;;8.60;3.03;;;11.70;95.80;;;;;;5057091;28;20029;-78
2023/05/25 02:57:37;;;;;;;9.63;3.15;;;11.70;96.10;;;;;;5056378;28;20355;-78
2023/05/25 03:00:05;;;;;;;8.00;2.55;;;11.60;96.40;;;;;;5056924;28;20032;-78
2023/05/25 03:02:32;;;;;;;5.78;2.95;;;11.60;96.90;;;;;;5055159;28;20393;-78
2023/05/25 03:04:58;;;;;;;11.55;3.08;;;11.60;97.00;;;;;;5056031;28;20021;-78
2023/05/25 03:07:27;;;;;;;8.23;2.85;;;11.50;97.30;;;;;;5055215;28;20028;-78
2023/05/25 03:09:53;;;;;;;7.32;2.47;;;11.50;97.40;;;;;;5056724;28;20082;-78
2023/05/25 03:12:18;;;;;;;6.50;2.60;;;11.50;97.50;;;;;;5056468;28;20033;-78
2023/05/25 03:14:44;;;;;;;11.10;2.50;;;11.50;97.60;;;;;;5055477;28;20072;-78
2023/05/25 03:17:09;;;;;;;8.10;2.88;;;11.50;97.80;;;;;;5056718;28;20060;-78
2023/05/25 03:19:35;;;;;;;7.55;2.90;;;11.50;98.00;;;;;;5055005;28;20029;-78
2023/05/25 03:22:02;;;;;;;6.50;2.72;;;11.40;98.00;;;;;;5055576;28;20052;-78
2023/05/25 03:24:28;;;;;;;10.63;3.08;;;11.40;98.20;;;;;;5055281;28;20029;-79
2023/05/25 03:26:54;;;;;;;7.82;3.13;;;11.40;98.50;;;;;;5055871;28;20367;-79
2023/05/25 03:29:20;;;;;;;10.30;3.20;;;11.40;98.70;;;;;;5055971;28;20032;-79
2023/05/25 03:31:46;;;;;;;7.88;3.00;;;11.30;98.80;;;;;;5055570;28;20032;-78
2023/05/25 03:34:12;;;;;;;9.50;2.75;;;11.30;99.00;;;;;;5055361;28;20029;-79
2023/05/25 03:36:37;;;;;;;7.85;3.00;;;11.30;99.20;;;;;;5056440;28;20029;-79
2023/05/25 03:39:04;;;;;;;7.75;2.90;;;11.30;99.20;;;;;;5056354;28;20036;-79
2023/05/25 03:41:30;;;;;;;8.88;3.33;;;11.30;99.20;;;;;;5055965;28;20036;-80
2023/05/25 03:43:55;;;;;;;7.13;3.08;;;11.20;99.50;;;;;;5055321;28;20359;-80
2023/05/25 03:46:21;;;;;;;9.85;3.15;;;11.20;99.80;;;;;;5065445;28;20032;-79
2023/05/25 03:48:46;;;;;;;8.07;3.28;;;11.20;99.80;;;;;;5074648;28;20496;-79
2023/05/25 03:51:12;;;;;;;10.48;2.85;;;11.20;99.90;;;;;;5075039;28;20032;-79
2023/05/25 03:53:38;;;;;;;8.20;3.13;;;11.10;99.90;;;;;;5075738;28;20115;-79
2023/05/25 03:56:03;;;;;;;6.47;2.63;;;11.20;99.90;;;;;;5075808;28;20134;-79
2023/05/25 03:58:29;;;;;;;7.78;2.90;;;11.20;99.90;;;;;;5074396;28;20039;-79
2023/05/25 04:00:55;;;;;;;7.90;2.53;;;11.20;99.90;;;;;;5074691;28;20031;-79
2023/05/25 04:03:21;;;;;;;8.18;3.13;;;11.20;99.90;;;;;;5076023;28;20029;-78
2023/05/25 04:05:46;;;;;;;10.52;3.95;;;11.00;99.90;;;;;;5074629;28;20107;-78
2023/05/25 04:08:19;;;;;;;11.00;3.00;;;11.00;99.90;;;;;;5074609;28;20070;-78
2023/05/25 04:10:45;;;;;;;8.60;2.65;;;11.00;99.90;;;;;;5075824;28;20100;-80
2023/05/25 04:13:11;;;;;;;12.25;3.30;;;11.10;99.90;;;;;;5076095;28;20024;-80
2023/05/25 04:15:36;;;;;;;7.75;2.40;;;11.10;99.90;;;;;;5074322;28;20020;-80
2023/05/25 04:18:02;;;;;;;11.25;3.10;;;11.10;99.90;;;;;;5075581;28;20496;-79
2023/05/25 04:20:28;;;;;;;6.88;2.67;;;11.10;99.90;;;;;;5074191;28;20021;-79
2023/05/25 04:22:54;;;;;;;12.73;2.95;;;11.20;99.90;;;;;;5074338;28;20115;-79
2023/05/25 04:25:20;;;;;;;10.25;2.95;;;11.20;99.90;;;;;;5074386;28;20040;-78
2023/05/25 04:27:45;;;;;;;9.60;3.00;;;11.20;99.90;;;;;;5090223;28;20476;-79
2023/05/25 04:30:12;;;;;;;8.15;2.80;;;11.20;99.90;;;;;;5075314;28;20454;-78
2023/05/25 04:32:38;;;;;;;12.05;2.80;;;11.20;99.90;;;;;;5073981;28;20170;-79
2023/05/25 04:35:04;;;;;;;12.75;3.30;;;11.20;99.90;;;;;;5070968;28;20469;-79
2023/05/25 04:37:32;;;;;;;9.70;3.28;;;11.20;99.90;;;;;;5079745;28;20056;-79
2023/05/25 04:39:58;;;;;;;9.45;3.20;;;11.20;99.90;;;;;;5075021;28;20100;-79
2023/05/25 04:42:24;;;;;;;8.32;2.83;;;11.20;99.90;;;;;;5074935;28;20032;-79
2023/05/25 04:44:52;;;;;;;10.15;3.10;;;11.10;99.90;;;;;;5073432;28;20021;-78
2023/05/25 04:47:18;;;;;;;9.30;2.90;;;11.20;99.90;;;;;;5074805;28;20074;-78
2023/05/25 04:49:43;;;;;;;12.15;3.33;;;11.20;99.90;;;;;;5074500;28;20454;-78
2023/05/25 04:52:09;;;;;;;9.63;2.97;;;11.20;99.90;;;;;;5074827;28;20025;-78
2023/05/25 04:54:35;;;;;;;9.82;3.35;;;11.30;99.90;;;;;;5074204;28;20024;-78
2023/05/25 04:57:01;;;;;;;7.20;3.08;;;11.30;99.90;;;;;;5073554;28;20036;-78
2023/05/25 04:59:27;;;;;;;8.55;2.75;;;11.30;99.90;;;;;;5072711;28;20039;-79
2023/05/25 05:01:53;;;;;;;9.30;2.50;;;11.30;99.90;;;;;;5073608;28;20048;-78
2023/05/25 05:04:18;;;;;;;9.85;3.10;;;11.30;99.90;;;;;;5073819;28;20569;-78
2023/05/25 05:06:44;;;;;;;8.10;2.90;;;11.30;99.90;;;;;;5073087;28;20028;-79
2023/05/25 05:09:10;;;;;;;8.43;3.08;;;11.30;99.90;;;;;;5074551;28;20039;-78
2023/05/25 05:11:36;;;;;;;10.65;3.10;;;11.30;99.90;;;;;;5072758;28;20028;-78
2023/05/25 05:14:01;;;;;;;7.68;2.63;;;11.30;99.90;;;;;;5074605;28;20032;-78
2023/05/25 05:16:32;;;;;;;6.05;2.85;;;11.40;99.90;;;;;;5073480;28;20527;-78
2023/05/25 05:18:57;;;;;;;12.07;3.58;;;11.40;99.90;;;;;;5075242;28;20024;-78
2023/05/25 05:21:23;;;;;;;9.93;2.90;;;11.40;99.90;;;;;;5074617;28;20066;-78
2023/05/25 05:23:49;;;;;;;8.98;2.60;;;11.40;99.90;;;;;;5072724;28;20389;-78
2023/05/25 05:26:14;;;;;;;11.60;2.80;;;11.40;99.90;;;;;;5074393;28;20037;-79
2023/05/25 05:28:40;;;;;;;8.02;2.70;;;11.40;99.90;;;;;;5073159;28;20031;-78
2023/05/25 05:31:06;;;;;;;10.10;2.70;;;11.50;99.90;;;;;;5090190;28;20021;-78
2023/05/25 05:33:31;;;;;;;7.63;3.42;;;11.50;99.90;;;;;;5073010;28;20025;-78
2023/05/25 05:35:57;;;;;;;10.05;2.88;;;11.50;99.90;;;;;;5072847;28;20036;-79
2023/05/25 05:38:23;;;;;;;8.50;2.70;;;11.50;99.90;;;;;;5072921;28;20025;-78
2023/05/25 05:40:48;;;;;;;8.95;2.97;;;11.60;99.90;;;;;;5073767;28;20081;-78
2023/05/25 05:43:14;;;;;;;8.57;2.67;;;11.60;99.90;;;;;;5073945;28;20032;-76
2023/05/25 05:45:40;;;;;;;8.68;3.00;;;11.70;99.90;;;;;;5072417;28;20028;-78
2023/05/25 05:48:08;;;;;;;9.15;3.17;;;11.70;99.90;;;;;;5072676;28;20453;-78
2023/05/25 05:50:38;;;;;;;8.13;2.92;;;11.70;99.90;;;;;;5072605;28;20024;-78
2023/05/25 05:53:05;;;;;;;11.88;3.72;;;11.80;99.90;;;;;;5072804;28;20033;-78
2023/05/25 05:55:31;;;;;;;8.57;2.90;;;11.80;99.90;;;;;;5072191;28;20490;-79
2023/05/25 05:57:57;;;;;;;13.45;2.78;;;11.80;99.90;;;;;;5072402;28;20040;-78
2023/05/25 06:00:23;;;;;;;11.30;2.70;;;11.90;99.90;;;;;;5073545;28;20377;-78
2023/05/25 06:02:49;;;;;;;7.80;2.78;;;11.90;99.90;;;;;;5074403;28;20084;-78
2023/05/25 06:05:15;;;;;;;7.88;2.40;;;11.90;99.90;;;;;;5079566;28;20531;-78
2023/05/25 06:07:41;;;;;;;8.85;2.40;;;12.00;99.90;;;;;;5078718;28;20062;-77
2023/05/25 06:10:08;;;;;;;10.43;3.15;;;12.10;99.90;;;;;;5080250;28;20127;-76
2023/05/25 06:12:33;;;;;;;8.40;2.67;;;12.10;99.90;;;;;;5079472;28;20404;-79
2023/05/25 06:14:59;;;;;;;10.45;2.80;;;12.10;99.90;;;;;;5079519;28;20032;-78
2023/05/25 06:17:26;;;;;;;8.05;2.55;;;12.20;99.90;;;;;;5079422;28;20144;-78
2023/05/25 06:19:52;;;;;;;8.57;2.58;;;12.20;99.90;;;;;;5079050;28;20032;-78
2023/05/25 06:22:17;;;;;;;11.52;2.60;;;12.20;99.90;;;;;;5079157;28;20370;-80
2023/05/25 06:24:43;;;;;;;8.32;2.55;;;12.30;99.90;;;;;;5078435;28;20046;-79
2023/05/25 06:27:09;;;;;;;14.73;3.03;;;12.30;99.90;;;;;;5096022;28;20036;-79
2023/05/25 06:29:34;;;;;;;8.93;2.67;;;12.40;99.90;;;;;;5078756;28;20476;-80
2023/05/25 06:32:00;;;;;;;10.15;2.15;;;12.50;99.90;;;;;;5078988;28;20032;-79
2023/05/25 06:34:26;;;;;;;10.43;2.60;;;12.60;99.80;;;;;;5079083;28;20032;-78
2023/05/25 06:36:51;;;;;;;10.93;2.35;;;12.60;99.60;;;;;;5079383;28;20284;-79
2023/05/25 06:39:20;;;;;;;9.85;2.35;;;12.60;99.70;;;;;;5078261;28;20170;-78
2023/05/25 06:41:46;;;;;;;10.25;2.30;;;12.70;99.40;;;;;;5079611;28;20031;-78
2023/05/25 06:44:11;;;;;;;8.15;2.28;;;12.70;98.80;;;;;;5079122;28;20029;-79
2023/05/25 06:46:38;;;;;;;9.65;2.35;;;12.80;98.70;;;;;;5079676;28;20024;-79
2023/05/25 06:49:03;;;;;;;6.80;2.83;;;12.90;98.80;;;;;;5079851;28;20366;-78
2023/05/25 06:51:30;;;;;;;13.05;2.65;;;12.90;98.30;;;;;;5078584;28;20016;-79
2023/05/25 06:53:55;;;;;;;11.88;2.58;;;13.00;98.20;;;;;;5078633;28;20039;-78
2023/05/25 06:56:21;;;;;;;10.52;2.75;;;13.00;98.60;;;;;;5079029;28;20036;-77
2023/05/25 06:58:47;;;;;;;8.90;2.80;;;13.00;98.50;;;;;;5078997;28;20029;-78
2023/05/25 07:01:13;;;;;;;7.43;2.28;;;13.10;97.90;;;;;;5071991;28;20099;-78
2023/05/25 07:03:39;;;;;;;8.93;2.67;;;13.10;98.30;;;;;;5075424;28;20142;-79
2023/05/25 07:06:05;;;;;;;5.95;2.10;;;13.10;98.70;;;;;;5078650;28;20058;-78
2023/05/25 07:08:31;;;;;;;7.68;2.30;;;13.20;98.40;;;;;;5080066;28;20028;-79
2023/05/25 07:10:56;;;;;;;8.13;2.40;;;13.20;98.60;;;;;;5073630;28;20020;-78
2023/05/25 07:13:22;;;;;;;7.20;2.33;;;13.20;99.00;;;;;;5070197;28;20103;-78
2023/05/25 07:15:48;;;;;;;9.57;2.50;;;13.30;99.30;;;;;;5065316;28;20507;-79
2023/05/25 07:18:14;;;;;;;8.77;3.08;;;13.40;98.70;;;;;;5064395;28;20109;-79
2023/05/25 07:20:43;;;;;;;9.27;2.80;;;13.40;98.60;;;;;;5067902;28;20083;-79
2023/05/25 07:23:11;;;;;;;11.07;2.67;;;13.50;98.50;;;;;;5067608;28;20028;-79
2023/05/25 07:25:37;;;;;;;8.30;2.50;;;13.60;98.20;;;;;;5064364;28;20036;-79
2023/05/25 07:28:03;;;;;;;7.93;2.53;;;13.50;98.10;;;;;;5066600;28;20029;-79
2023/05/25 07:30:29;;;;;;;9.30;3.10;;;13.60;98.80;;;;;;5063321;28;20112;-78
2023/05/25 07:32:56;;;;;;;9.13;2.33;;;13.70;99.10;;;;;;5058411;28;20194;-78
2023/05/25 07:35:22;;;;;;;10.80;3.17;;;13.70;98.30;;;;;;5055955;28;20445;-78
2023/05/25 07:37:59;;;;;;;8.65;2.55;;;13.80;98.10;;;;;;5054479;28;20071;-78
2023/05/25 07:40:25;;;;;;;8.73;2.75;;;13.90;98.10;;;;;;5055017;28;20458;-78
2023/05/25 07:42:51;;;;;;;11.50;3.28;;;13.90;97.90;;;;;;5054544;28;20051;-77
2023/05/25 07:45:17;;;;;;;7.30;2.42;;;14.00;97.60;;;;;;5055932;28;20033;-78
2023/05/25 07:47:42;;;;;;;14.63;3.03;;;14.00;97.40;;;;;;5054331;28;20036;-78
2023/05/25 07:50:09;;;;;;;8.68;2.75;;;14.10;97.30;;;;;;5055998;28;20032;-78
2023/05/25 07:52:34;;;;;;;8.40;2.67;;;14.10;97.60;;;;;;5054975;28;20029;-78
2023/05/25 07:55:00;;;;;;;5.13;2.30;;;14.20;97.80;;;;;;5054251;28;20033;-78
2023/05/25 07:57:25;;;;;;;12.25;3.13;;;14.20;97.50;;;;;;5055883;28;20120;-79
2023/05/25 07:59:51;;;;;;;10.10;2.80;;;14.30;97.50;;;;;;5054264;28;20199;-79
2023/05/25 08:02:17;;;;;;;12.73;3.28;;;14.40;97.90;;;;;;5055344;28;20071;-78
2023/05/25 08:04:42;;;;;;;9.88;3.17;;;14.40;97.90;;;;;;5063014;28;20086;-79
2023/05/25 08:07:08;;;;;;;11.43;3.08;;;14.50;97.60;;;;;;5064336;28;20060;-78
2023/05/25 08:09:34;;;;;;;7.78;2.97;;;14.60;97.30;;;;;;5065763;28;20426;-79
2023/05/25 08:12:00;;;;;;;9.40;2.80;;;14.70;97.70;;;;;;5064129;28;20017;-78
2023/05/25 08:14:25;;;;;;;9.00;3.22;;;14.80;97.50;;;;;;5063931;28;20021;-78
2023/05/25 08:16:51;;;;;;;13.93;3.80;;;14.80;97.30;;;;;;5064899;28;20090;-78
2023/05/25 08:19:16;;;;;;;10.77;3.20;;;14.80;96.50;;;;;;5056738;28;20028;-78
2023/05/25 08:21:42;;;;;;;11.35;3.25;;;14.90;96.70;;;;;;5054107;28;20033;-78
2023/05/25 08:24:08;;;;;;;9.57;3.08;;;15.00;96.40;;;;;;5054911;28;20029;-77
2023/05/25 08:26:37;;;;;;;10.05;3.25;;;15.00;96.20;;;;;;5056433;28;20080;-78
2023/05/25 08:29:03;;;;;;;10.50;3.63;;;15.10;96.10;;;;;;5054016;28;20167;-78
2023/05/25 08:31:30;;;;;;;8.18;3.25;;;15.20;96.20;;;;;;5054555;28;20032;-78
2023/05/25 08:33:56;;;;;;;6.55;2.88;;;15.20;95.90;;;;;;5055087;28;20024;-79
2023/05/25 08:36:21;;;;;;;10.65;3.35;;;15.20;96.20;;;;;;5054641;28;20040;-79
2023/05/25 08:38:47;;;;;;;8.15;3.17;;;15.30;96.50;;;;;;5054264;28;20021;-79
2023/05/25 08:41:13;;;;;;;6.63;3.10;;;15.40;97.10;;;;;;5053831;28;20099;-78
2023/05/25 08:43:40;;;;;;;10.98;3.80;;;15.40;96.60;;;;;;5071319;28;20051;-78
2023/05/25 08:46:07;;;;;;;10.95;3.45;;;15.50;95.90;;;;;;5065851;28;20426;-78
2023/05/25 08:48:36;;;;;;;10.77;3.25;;;15.50;95.90;;;;;;5053790;28;20124;-78
2023/05/25 08:51:15;;;;;;;8.25;3.67;;;15.60;96.60;;;;;;5059607;28;20029;-78
2023/05/25 08:53:42;;;;;;;13.88;3.60;;;15.70;95.70;;;;;;5073198;28;20029;-81
2023/05/25 08:56:22;;;;;;;10.57;3.42;;;15.70;95.80;;;;;;5074581;28;21963;-79
2023/05/25 08:59:04;;;;;;;8.23;3.33;;;15.80;95.60;;;;;;5073214;28;20055;-79
2023/05/25 09:01:35;;;;;;;9.25;3.55;;;15.80;96.00;;;;;;5074269;28;20049;-79
2023/05/25 09:04:01;;;;;;;7.43;3.22;;;15.90;96.10;;;;;;5062854;28;20028;-79
2023/05/25 09:06:28;;;;;;;9.40;3.25;;;15.90;96.00;;;;;;5060735;28;20052;-79
2023/05/25 09:08:54;;;;;;;9.80;3.85;;;16.10;96.70;;;;;;5062235;28;20055;-78
2023/05/25 09:11:20;;;;;;;10.60;3.33;;;16.10;95.70;;;;;;5059404;28;20025;-79
2023/05/25 09:13:46;;;;;;;8.75;3.67;;;16.20;96.80;;;;;;5063079;28;20036;-79
2023/05/25 09:16:12;;;;;;;12.80;3.50;;;16.30;97.30;;;;;;5053150;28;20039;-79
2023/05/25 09:18:39;;;;;;;7.97;3.42;;;16.30;96.00;;;;;;5055732;28;20029;-79
2023/05/25 09:21:04;;;;;;;9.25;3.45;;;16.40;95.90;;;;;;5069275;28;20024;-79
2023/05/25 09:23:30;;;;;;;10.48;3.85;;;16.40;96.60;;;;;;5069350;28;20377;-79
2023/05/25 09:25:57;;;;;;;12.90;3.47;;;16.50;96.10;;;;;;5068781;28;20036;-78
2023/05/25 09:28:22;;;;;;;8.20;3.85;;;16.60;97.20;;;;;;5063641;28;20033;-79
2023/05/25 09:30:49;;;;;;;10.75;3.65;;;16.60;95.40;;;;;;5061616;28;20021;-79
2023/05/25 09:33:18;;;;;;;8.40;3.30;;;16.60;96.50;;;;;;5068734;28;20028;-78
2023/05/25 09:35:45;;;;;;;9.38;3.28;;;16.70;95.60;;;;;;5070372;28;20036;-84
2023/05/25 09:38:15;;;;;;;9.07;3.40;;;16.80;95.80;;;;;;5061238;28;20032;-85
2023/05/25 09:40:41;;;;;;;9.75;3.10;;;16.70;94.70;;;;;;5062515;28;20055;-90
2023/05/25 09:43:06;;;;;;;9.75;3.25;;;16.80;95.90;;;;;;5070749;28;20044;-86
2023/05/25 09:45:32;;;;;;;12.98;3.30;;;16.80;94.10;;;;;;5057302;28;20052;-85
2023/05/25 09:47:58;;;;;;;8.80;2.88;;;16.90;94.70;;;;;;5067771;28;20033;-86
2023/05/25 09:50:28;;;;;;;8.20;3.30;;;17.00;93.50;;;;;;5072397;28;20503;-85
2023/05/25 09:52:59;;;;;;;6.68;3.10;;;17.00;92.30;;;;;;5074788;28;20062;-85
2023/05/25 09:55:28;;;;;;;;;;;17.00;92.90;;;;;;5065987;28;20108;-86
2023/05/25 09:57:55;;;;;;;7.82;2.75;;;17.10;93.70;;;;;;5067760;28;19935;-86
2023/05/25 10:00:23;;;;;;;6.20;2.97;;;17.20;92.70;;;;;;5056402;28;20043;-85
2023/05/25 10:02:49;;;;;;;8.57;2.78;;;17.20;92.20;;;;;;5068559;28;20124;-85
2023/05/25 10:05:15;;;;;;;8.30;3.15;;;17.30;92.20;;;;;;5054574;28;20037;-86
2023/05/25 10:07:44;;;;;;;9.98;2.88;;;17.30;92.00;;;;;;5072570;28;20385;-84
2023/05/25 10:10:14;;;;;;;10.00;2.90;;;17.30;92.70;;;;;;5061851;28;20035;-85
2023/05/25 10:12:44;;;;;;;7.15;2.90;;;17.40;92.20;;;;;;5053476;28;20025;-85
2023/05/25 10:15:13;;;;;;;5.65;2.78;;;17.40;93.60;;;;;;5055648;28;20107;-85
2023/05/25 10:18:09;;;;;;;8.65;3.00;;;17.60;93.50;;;;;;5067022;28;20029;-86
2023/05/25 10:20:35;;;;;;;7.40;2.92;;;17.60;91.40;;;;;;5054215;28;20103;-86
2023/05/25 10:23:09;;;;;;;5.25;2.72;;;17.60;91.70;;;;;;5071744;28;20037;-86
2023/05/25 10:25:45;;;;;;;8.93;3.15;;;17.70;92.30;;;;;;5066931;28;20029;-86
2023/05/25 10:28:26;;;;;;;9.40;2.92;;;17.70;91.60;;;;;;5062779;28;20500;-85
2023/05/25 10:30:54;;;;;;;9.27;3.00;;;17.80;91.90;;;;;;5060642;28;20390;-85
2023/05/25 10:33:20;;;;;;;8.18;3.15;;;17.90;91.00;;;;;;5088917;28;20036;-86
2023/05/25 10:35:48;;;;;;;14.02;3.20;;;17.90;90.90;;;;;;5065106;28;20032;-85
2023/05/25 10:38:14;;;;;;;7.30;2.90;;;17.90;91.20;;;;;;5061329;28;20104;-85
2023/05/25 10:40:39;;;;;;;9.20;2.80;;;18.00;91.60;;;;;;5066650;28;20068;-86
2023/05/25 10:43:06;;;;;;;11.15;3.60;;;18.00;91.20;;;;;;5054095;28;20052;-85
2023/05/25 10:45:32;;;;;;;8.43;2.88;;;18.10;92.80;;;;;;5062823;28;20056;-86
2023/05/25 10:47:57;;;;;;;5.75;2.90;;;18.20;92.40;;;;;;5064296;28;20025;-86
2023/05/25 10:50:25;;;;;;;11.10;3.22;;;18.30;92.00;;;;;;5068524;28;20028;-86
2023/05/25 10:53:02;;;;;;;5.32;2.70;;;18.40;90.80;;;;;;5060958;28;20029;-85
2023/05/25 10:55:40;;;;;;;6.70;3.30;;;18.40;91.20;;;;;;5056356;28;20033;-86
2023/05/25 10:58:14;;;;;;;9.60;3.08;;;18.60;91.20;;;;;;5066402;28;20297;-85
2023/05/25 11:00:40;;;;;;;7.40;3.13;;;18.60;90.70;;;;;;5077645;28;20082;-85
2023/05/25 11:03:06;;;;;;;4.90;2.88;;;18.60;90.80;;;;;;5060959;28;20144;-85
2023/05/25 11:05:34;;;;;;;6.60;3.35;;;18.60;90.30;;;;;;5073357;28;20025;-85
2023/05/25 11:08:01;;;;;;;4.70;2.85;;;18.70;92.10;;;;;;5066080;28;20033;-85
2023/05/25 11:10:51;;;;;;;6.03;3.33;;;18.80;91.40;;;;;;5065537;28;20543;-86
2023/05/25 11:13:35;;;;;;;8.43;3.20;;;18.90;92.10;;;;;;5075576;28;20031;-85
2023/05/25 11:16:13;;;;;;;4.95;2.90;;;19.10;92.00;;;;;;5067237;28;20033;-85
2023/05/25 11:18:58;;;;;;;6.40;3.05;;;19.20;91.80;;;;;;5055465;28;20074;-85
2023/05/25 11:21:26;;;;;;;8.35;3.15;;;19.20;91.30;;;;;;5064331;28;20027;-85
2023/05/25 11:24:09;;;;;;;6.75;3.03;;;19.30;91.10;;;;;;5062729;28;20469;-85
2023/05/25 11:26:35;;;;;;;7.20;2.80;;;19.30;89.40;;;;;;5062413;28;20059;-85
2023/05/25 11:29:14;;;;;;;11.63;3.22;;;19.40;90.90;;;;;;5071884;28;20478;-85
2023/05/25 11:31:40;;;;;;;8.00;3.25;;;19.50;90.80;;;;;;5061611;28;20033;-85
2023/05/25 11:34:06;;;;;;;8.20;3.78;;;19.60;90.80;;;;;;5065893;28;20484;-85
2023/05/25 11:36:34;;;;;;;4.97;3.00;;;19.70;91.10;;;;;;5061684;28;20128;-86
2023/05/25 11:39:02;;;;;;;10.07;2.92;;;19.80;91.70;;;;;;5054823;28;20029;-85
2023/05/25 11:41:28;;;;;;;9.90;3.30;;;19.80;90.80;;;;;;5067432;28;20024;-85
2023/05/25 11:43:54;;;;;;;8.25;3.33;;;19.90;89.00;;;;;;5066468;28;20025;-85
2023/05/25 11:46:20;;;;;;;7.80;2.97;;;19.90;90.10;;;;;;5066258;28;20039;-86
2023/05/25 11:48:53;;;;;;;6.53;3.40;;;19.80;87.00;;;;;;5059452;28;20164;-85
2023/05/25 11:51:23;;;;;;;7.68;2.80;;;20.00;89.20;;;;;;5066888;28;20024;-85
2023/05/25 11:53:49;;;;;;;8.60;2.97;;;20.10;89.40;;;;;;5074019;28;20033;-85
2023/05/25 11:56:17;;;;;;;6.40;2.75;;;20.20;89.80;;;;;;5064668;28;20056;-85
2023/05/25 11:58:44;;;;;;;5.75;2.78;;;20.20;86.70;;;;;;5070447;28;20104;-86
2023/05/25 12:01:17;;;;;;;7.70;3.03;;;20.30;89.50;;;;;;5072087;28;20053;-85
2023/05/25 12:03:43;;;;;;;6.95;2.88;;;20.40;88.70;;;;;;5091673;28;20029;-86
2023/05/25 12:06:25;;;;;;;6.70;2.90;;;20.50;85.70;;;;;;5090497;28;20036;-86
2023/05/25 12:08:52;;;;;;;5.85;2.88;;;20.50;85.00;;;;;;5058256;28;20083;-83
2023/05/25 12:11:26;;;;;;;10.85;3.08;;;20.70;86.30;;;;;;5058177;28;20029;-85
2023/05/25 12:13:52;;;;;;;5.35;2.88;;;20.90;84.40;;;;;;5065581;28;20039;-84
2023/05/25 12:16:18;;;;;;;9.23;3.10;;;21.00;84.00;;;;;;5057626;28;20040;-85
2023/05/25 12:18:44;;;;;;;6.53;2.60;;;21.10;84.90;;;;;;5071151;28;20025;-85
2023/05/25 12:21:10;;;;;;;6.13;2.60;;;21.30;83.60;;;;;;5070714;28;20180;-85
2023/05/25 12:23:36;;;;;;;8.40;3.05;;;21.50;82.60;;;;;;5070831;28;20029;-86
2023/05/25 12:26:10;;;;;;;6.63;2.40;;;21.70;82.50;;;;;;5059812;28;20028;-85
2023/05/25 12:28:35;;;;;;;7.65;2.80;;;22.00;80.60;;;;;;5061408;28;20028;-85
2023/05/25 12:31:24;;;;;;;9.43;2.80;;;22.20;79.30;;;;;;5059804;28;20511;-85
2023/05/25 12:34:11;;;;;;;7.38;2.75;;;22.40;79.90;;;;;;5054998;28;20021;-85
2023/05/25 12:36:53;;;;;;;7.60;2.80;;;22.60;79.10;;;;;;5065220;28;20041;-85
2023/05/25 12:39:28;;;;;;;8.88;2.88;;;22.60;77.60;;;;;;5054489;28;20049;-85
2023/05/25 12:41:55;;;;;;;7.18;2.90;;;22.40;76.10;;;;;;5053624;28;20477;-83
2023/05/25 12:44:26;;;;;;;9.30;2.95;;;22.70;78.00;;;;;;5065286;28;20021;-85
2023/05/25 12:46:53;;;;;;;5.50;2.72;;;22.80;76.40;;;;;;5057764;28;20135;-84
2023/05/25 12:49:33;;;;;;;9.55;2.85;;;22.90;78.00;;;;;;5073819;28;20040;-85